Time;durP1;ratioP1;P1;durP2;ratioP2;P2;SDS_P1;SDS_P2;PMS_P1;PMS_P2;Temp;Humidity;BMP_temperature;BMP_pressure;BME280_temperature;BME280_humidity;BME280_pressure;Samples;Min_cycle;Max_cycle;Signal;HPM_P1;HPM_P2
2022/03/26 00:02:23;;;;;;;15.43;8.70;;;8.00;45.00;;;;;;944078;151;27308;-79
2022/03/26 00:04:50;;;;;;;16.03;9.60;;;8.00;45.10;;;;;;943650;150;27322;-79
2022/03/26 00:07:17;;;;;;;13.20;8.63;;;7.90;45.10;;;;;;944244;150;27360;-79
2022/03/26 00:09:43;;;;;;;12.73;8.63;;;7.90;45.30;;;;;;943688;151;27504;-79
2022/03/26 00:12:10;;;;;;;12.73;8.70;;;7.80;45.30;;;;;;943308;150;27242;-79
2022/03/26 00:14:36;;;;;;;11.60;8.53;;;7.80;45.40;;;;;;943768;151;27322;-79
2022/03/26 00:17:03;;;;;;;16.73;8.83;;;7.70;45.50;;;;;;944085;151;27309;-79
2022/03/26 00:19:29;;;;;;;11.50;8.17;;;7.70;46.30;;;;;;943801;149;27485;-79
2022/03/26 00:21:56;;;;;;;13.60;9.30;;;7.70;45.80;;;;;;943051;149;28029;-77
2022/03/26 00:24:22;;;;;;;15.73;9.27;;;7.70;45.80;;;;;;944504;151;27774;-77
2022/03/26 00:26:49;;;;;;;15.23;9.83;;;7.70;45.90;;;;;;943955;149;27305;-77
2022/03/26 00:29:16;;;;;;;12.77;7.73;;;7.70;46.00;;;;;;944086;151;27245;-77
2022/03/26 00:31:42;;;;;;;12.27;8.60;;;7.70;46.10;;;;;;944304;151;27442;-77
2022/03/26 00:34:09;;;;;;;14.93;9.57;;;7.70;46.10;;;;;;944117;151;27372;-77
2022/03/26 00:36:35;;;;;;;15.00;9.80;;;7.70;46.10;;;;;;943655;151;27305;-79
2022/03/26 00:39:02;;;;;;;15.10;10.33;;;7.70;46.10;;;;;;951840;150;27637;-79
2022/03/26 00:41:29;;;;;;;16.17;9.37;;;7.70;46.20;;;;;;953003;150;27339;-79
2022/03/26 00:43:55;;;;;;;15.07;8.90;;;7.70;46.30;;;;;;954028;148;27352;-77
2022/03/26 00:46:22;;;;;;;17.80;9.67;;;7.70;46.30;;;;;;953829;150;27338;-77
2022/03/26 00:48:48;;;;;;;15.93;10.30;;;7.70;46.30;;;;;;953447;150;27321;-77
2022/03/26 00:51:15;;;;;;;12.23;8.10;;;7.70;46.40;;;;;;952717;150;27413;-77
2022/03/26 00:53:42;;;;;;;16.10;9.57;;;7.70;46.40;;;;;;953482;150;27308;-77
2022/03/26 00:56:08;;;;;;;14.70;8.83;;;7.70;46.50;;;;;;952498;150;27775;-79
2022/03/26 00:58:35;;;;;;;12.83;9.10;;;7.70;46.50;;;;;;953195;150;27432;-79
2022/03/26 01:01:01;;;;;;;16.67;11.30;;;7.70;46.60;;;;;;952725;150;27741;-79
2022/03/26 01:03:28;;;;;;;15.27;10.40;;;7.70;46.50;;;;;;953365;150;27301;-79
2022/03/26 01:05:54;;;;;;;15.83;9.90;;;7.70;46.70;;;;;;953669;150;27369;-79
2022/03/26 01:08:21;;;;;;;14.17;9.27;;;7.70;46.70;;;;;;954005;150;27366;-79
2022/03/26 01:10:48;;;;;;;17.40;10.33;;;7.70;46.60;;;;;;953900;150;27367;-79
2022/03/26 01:13:14;;;;;;;15.20;9.77;;;7.70;47.00;;;;;;953209;150;27275;-79
2022/03/26 01:15:41;;;;;;;17.93;9.97;;;7.70;46.80;;;;;;953399;150;27396;-79
2022/03/26 01:18:08;;;;;;;16.20;10.87;;;7.70;46.90;;;;;;953434;150;27361;-79
2022/03/26 01:20:34;;;;;;;18.17;10.20;;;7.70;46.90;;;;;;953411;150;27929;-79
2022/03/26 01:23:01;;;;;;;19.30;10.50;;;7.70;47.00;;;;;;952560;150;27416;-79
2022/03/26 01:25:27;;;;;;;18.10;10.67;;;7.70;47.00;;;;;;953748;148;27512;-79
2022/03/26 01:27:54;;;;;;;14.77;10.10;;;7.60;47.00;;;;;;952984;150;27268;-78
2022/03/26 01:30:20;;;;;;;15.03;10.40;;;7.60;47.10;;;;;;952588;148;27294;-79
2022/03/26 01:32:48;;;;;;;16.20;10.40;;;7.60;47.10;;;;;;953809;150;27353;-79
2022/03/26 01:35:14;;;;;;;13.30;8.63;;;7.60;47.10;;;;;;952269;150;27355;-79
2022/03/26 01:37:40;;;;;;;15.43;8.80;;;7.60;47.20;;;;;;952756;150;27447;-79
2022/03/26 01:40:07;;;;;;;13.20;9.33;;;7.50;47.20;;;;;;934696;150;27306;-79
2022/03/26 01:42:33;;;;;;;15.73;9.47;;;7.50;47.30;;;;;;936689;150;27343;-79
2022/03/26 01:45:00;;;;;;;10.90;7.97;;;7.40;47.50;;;;;;936865;152;27312;-79
2022/03/26 01:47:27;;;;;;;13.33;9.90;;;7.30;47.70;;;;;;935927;152;27341;-79
2022/03/26 01:49:53;;;;;;;13.17;9.17;;;7.30;47.70;;;;;;937570;152;28832;-79
2022/03/26 01:52:20;;;;;;;12.20;8.40;;;7.20;47.80;;;;;;936992;152;27375;-79
2022/03/26 01:54:46;;;;;;;11.13;7.83;;;7.10;47.90;;;;;;937865;151;27274;-79
2022/03/26 01:57:13;;;;;;;10.27;7.67;;;7.00;47.90;;;;;;937440;152;27341;-79
2022/03/26 01:59:40;;;;;;;14.20;8.97;;;6.90;48.00;;;;;;936304;150;27349;-79
2022/03/26 02:02:06;;;;;;;12.97;8.67;;;6.80;48.20;;;;;;936484;152;27467;-79
2022/03/26 02:04:35;;;;;;;14.63;9.23;;;6.70;48.40;;;;;;937485;151;27407;-79
2022/03/26 02:07:02;;;;;;;12.10;7.90;;;6.60;48.50;;;;;;936552;152;27330;-79
2022/03/26 02:09:38;;;;;;;11.80;8.33;;;6.60;48.50;;;;;;936480;151;27329;-79
2022/03/26 02:11:55;;;;;;;11.43;8.10;;;6.50;48.60;;;;;;934426;152;27438;-79
2022/03/26 02:14:24;;;;;;;14.53;8.50;;;6.40;48.70;;;;;;936640;152;27764;-79
2022/03/26 02:16:48;;;;;;;9.47;7.57;;;6.40;48.90;;;;;;935427;152;27299;-79
2022/03/26 02:19:15;;;;;;;10.90;8.07;;;6.30;49.10;;;;;;936993;150;27887;-79
2022/03/26 02:21:41;;;;;;;11.47;8.47;;;6.20;49.10;;;;;;936886;151;27438;-77
2022/03/26 02:24:08;;;;;;;13.50;7.20;;;6.20;49.20;;;;;;937439;151;27326;-77
2022/03/26 02:26:34;;;;;;;12.83;8.20;;;6.10;49.20;;;;;;936209;150;27403;-77
2022/03/26 02:29:04;;;;;;;11.30;8.23;;;6.10;49.40;;;;;;937182;151;27306;-77
2022/03/26 02:31:30;;;;;;;10.97;7.83;;;6.10;49.50;;;;;;936158;151;27915;-77
2022/03/26 02:33:57;;;;;;;9.13;6.93;;;6.00;49.50;;;;;;937281;150;27342;-77
2022/03/26 02:36:23;;;;;;;9.00;6.87;;;6.00;49.50;;;;;;936619;152;27340;-77
2022/03/26 02:38:50;;;;;;;11.00;6.97;;;6.00;49.60;;;;;;936575;152;27352;-77
2022/03/26 02:41:17;;;;;;;13.67;8.23;;;6.00;49.70;;;;;;935949;152;27270;-77
2022/03/26 02:43:43;;;;;;;13.07;9.27;;;6.00;49.80;;;;;;937318;150;27901;-77
2022/03/26 02:46:10;;;;;;;14.40;9.57;;;6.00;49.90;;;;;;935622;152;27417;-77
2022/03/26 02:48:39;;;;;;;10.87;8.07;;;6.00;50.10;;;;;;935781;152;27816;-77
2022/03/26 02:51:03;;;;;;;15.63;9.13;;;6.00;50.30;;;;;;936112;152;27326;-77
2022/03/26 02:53:30;;;;;;;13.77;8.40;;;6.00;50.30;;;;;;937339;151;27442;-77
2022/03/26 02:55:56;;;;;;;12.07;8.47;;;6.00;50.30;;;;;;937539;150;27298;-77
2022/03/26 02:58:23;;;;;;;12.93;7.97;;;6.00;50.30;;;;;;936113;150;27431;-79
2022/03/26 03:00:49;;;;;;;12.77;8.07;;;6.00;50.30;;;;;;936097;150;27302;-79
2022/03/26 03:03:16;;;;;;;9.13;6.57;;;6.00;50.30;;;;;;936364;150;27273;-79
2022/03/26 03:05:46;;;;;;;11.97;7.97;;;6.00;50.30;;;;;;935310;151;27289;-80
2022/03/26 03:08:09;;;;;;;9.03;7.17;;;6.00;50.30;;;;;;935836;152;27692;-80
2022/03/26 03:10:36;;;;;;;9.07;7.27;;;5.90;50.40;;;;;;936078;152;27768;-80
2022/03/26 03:13:02;;;;;;;9.03;6.90;;;5.90;50.50;;;;;;935939;152;27258;-80
2022/03/26 03:15:29;;;;;;;11.07;8.60;;;5.90;50.60;;;;;;936050;151;27345;-77
2022/03/26 03:17:55;;;;;;;11.33;7.17;;;5.80;50.50;;;;;;936251;151;27474;-79
2022/03/26 03:20:23;;;;;;;10.43;8.03;;;5.80;50.70;;;;;;935547;151;27369;-80
2022/03/26 03:22:49;;;;;;;13.40;7.87;;;5.70;50.70;;;;;;936041;150;27384;-78
2022/03/26 03:25:15;;;;;;;10.53;8.03;;;5.70;51.00;;;;;;936153;152;27384;-78
2022/03/26 03:27:42;;;;;;;14.67;9.17;;;5.70;51.00;;;;;;935140;152;27297;-80
2022/03/26 03:30:09;;;;;;;9.40;7.30;;;5.60;51.00;;;;;;935815;152;27419;-79
2022/03/26 03:32:35;;;;;;;12.53;8.83;;;5.60;51.20;;;;;;936966;152;27344;-79
2022/03/26 03:35:02;;;;;;;15.63;8.87;;;5.60;51.30;;;;;;936061;151;27660;-81
2022/03/26 03:37:28;;;;;;;18.33;10.00;;;5.50;51.30;;;;;;936931;151;27353;-81
2022/03/26 03:39:55;;;;;;;12.53;8.87;;;5.50;51.30;;;;;;937790;150;27963;-80
2022/03/26 03:42:21;;;;;;;14.80;9.70;;;5.50;51.40;;;;;;941936;150;27266;-80
2022/03/26 03:44:48;;;;;;;15.27;9.30;;;5.40;51.60;;;;;;941652;150;27329;-80
2022/03/26 03:47:15;;;;;;;13.07;9.70;;;5.40;51.60;;;;;;942322;150;27336;-81
2022/03/26 03:49:41;;;;;;;15.57;9.37;;;5.40;51.70;;;;;;941815;150;27269;-81
2022/03/26 03:52:08;;;;;;;12.43;9.47;;;5.40;51.90;;;;;;941518;150;27451;-81
2022/03/26 03:54:34;;;;;;;16.07;9.97;;;5.40;51.80;;;;;;941965;150;27382;-81
2022/03/26 03:57:01;;;;;;;15.83;9.20;;;5.40;51.90;;;;;;941715;150;27834;-80
2022/03/26 03:59:28;;;;;;;13.90;8.30;;;5.40;52.20;;;;;;941165;150;27353;-81
2022/03/26 04:01:54;;;;;;;13.43;9.00;;;5.40;52.10;;;;;;941325;150;27303;-80
2022/03/26 04:04:21;;;;;;;11.60;7.90;;;5.40;52.20;;;;;;941379;150;27273;-81
2022/03/26 04:06:47;;;;;;;12.80;8.17;;;5.50;52.30;;;;;;942577;150;27385;-80
2022/03/26 04:09:14;;;;;;;13.30;9.27;;;5.50;52.30;;;;;;942812;149;27303;-80
2022/03/26 04:11:40;;;;;;;12.30;8.13;;;5.50;52.30;;;;;;941663;150;27356;-81
2022/03/26 04:14:07;;;;;;;14.80;9.30;;;5.50;52.30;;;;;;941205;150;27349;-81
2022/03/26 04:16:34;;;;;;;14.50;8.80;;;5.50;52.40;;;;;;941465;150;27425;-80
2022/03/26 04:19:00;;;;;;;10.63;8.27;;;5.50;52.50;;;;;;940491;150;27332;-81
2022/03/26 04:21:27;;;;;;;10.93;8.30;;;5.50;52.50;;;;;;941806;150;27338;-80
2022/03/26 04:23:53;;;;;;;13.17;8.63;;;5.50;52.50;;;;;;941687;150;27372;-81
2022/03/26 04:26:21;;;;;;;15.17;8.63;;;5.40;52.50;;;;;;941675;150;27505;-81
2022/03/26 04:28:47;;;;;;;10.73;8.20;;;5.40;52.50;;;;;;941469;150;27286;-80
2022/03/26 04:31:13;;;;;;;11.77;8.37;;;5.40;52.50;;;;;;942125;150;27857;-80
2022/03/26 04:33:40;;;;;;;11.40;8.30;;;5.40;53.30;;;;;;942016;150;27352;-80
2022/03/26 04:36:06;;;;;;;12.17;8.97;;;5.30;52.70;;;;;;942040;150;27833;-81
2022/03/26 04:38:33;;;;;;;11.10;8.63;;;5.30;52.80;;;;;;941284;150;27344;-81
2022/03/26 04:41:00;;;;;;;10.67;7.40;;;5.20;52.90;;;;;;942515;149;27350;-81
2022/03/26 04:43:26;;;;;;;8.97;7.17;;;5.20;52.90;;;;;;943920;150;27353;-81
2022/03/26 04:45:53;;;;;;;13.63;9.47;;;5.10;52.90;;;;;;943995;151;27394;-81
2022/03/26 04:48:19;;;;;;;11.07;7.93;;;5.10;53.00;;;;;;943727;149;27438;-81
2022/03/26 04:50:46;;;;;;;10.83;8.10;;;5.00;53.50;;;;;;943918;150;27358;-81
2022/03/26 04:53:13;;;;;;;13.83;9.47;;;5.00;53.20;;;;;;943565;151;27900;-80
2022/03/26 04:55:39;;;;;;;10.73;7.77;;;4.90;53.20;;;;;;943742;151;27368;-81
2022/03/26 04:58:06;;;;;;;10.60;7.60;;;4.90;53.30;;;;;;943615;149;27382;-81
2022/03/26 05:00:32;;;;;;;13.37;7.63;;;4.80;53.40;;;;;;943889;150;27776;-81
2022/03/26 05:02:59;;;;;;;11.60;8.60;;;4.80;53.60;;;;;;944015;150;27281;-81
2022/03/26 05:05:26;;;;;;;15.33;10.37;;;4.70;53.50;;;;;;943912;151;27742;-80
2022/03/26 05:07:55;;;;;;;11.80;7.87;;;4.70;53.70;;;;;;944160;151;27316;-80
2022/03/26 05:10:19;;;;;;;8.43;7.13;;;4.70;53.80;;;;;;943712;151;27353;-80
2022/03/26 05:12:45;;;;;;;14.57;8.13;;;4.60;53.80;;;;;;943889;151;27359;-81
2022/03/26 05:15:12;;;;;;;13.37;8.80;;;4.60;53.90;;;;;;943432;151;27342;-81
2022/03/26 05:17:38;;;;;;;12.17;8.50;;;4.50;54.00;;;;;;943716;151;27442;-81
2022/03/26 05:20:05;;;;;;;14.37;9.47;;;4.50;54.00;;;;;;943820;149;27313;-81
2022/03/26 05:22:32;;;;;;;12.37;8.93;;;4.50;54.10;;;;;;943964;151;27389;-81
2022/03/26 05:24:58;;;;;;;10.33;7.93;;;4.40;53.50;;;;;;944405;149;27332;-81
2022/03/26 05:27:25;;;;;;;9.43;7.77;;;4.40;54.20;;;;;;943705;151;27359;-81
2022/03/26 05:29:51;;;;;;;12.70;8.70;;;4.40;54.40;;;;;;943638;151;27281;-80
2022/03/26 05:32:19;;;;;;;11.70;8.53;;;4.40;54.60;;;;;;943347;149;27289;-80
2022/03/26 05:34:47;;;;;;;13.60;9.33;;;4.40;54.70;;;;;;943776;151;27346;-80
2022/03/26 05:37:14;;;;;;;12.33;9.17;;;4.40;54.90;;;;;;943352;151;27474;-81
2022/03/26 05:39:40;;;;;;;11.13;8.50;;;4.50;55.20;;;;;;943267;149;27254;-81
2022/03/26 05:42:07;;;;;;;16.97;9.57;;;4.60;55.40;;;;;;943716;150;27909;-81
2022/03/26 05:44:34;;;;;;;10.93;8.97;;;4.70;55.50;;;;;;944028;151;27374;-80
2022/03/26 05:47:00;;;;;;;12.50;8.73;;;4.90;55.80;;;;;;944463;151;27352;-80
2022/03/26 05:49:27;;;;;;;18.17;8.83;;;5.10;55.90;;;;;;944094;151;27364;-81
2022/03/26 05:51:53;;;;;;;13.73;8.93;;;5.30;56.00;;;;;;943758;151;27320;-81
2022/03/26 05:54:20;;;;;;;14.03;9.70;;;5.60;56.20;;;;;;944190;149;27309;-80
2022/03/26 05:56:52;;;;;;;13.30;7.93;;;6.00;56.20;;;;;;944087;149;27296;-81
2022/03/26 05:59:23;;;;;;;14.53;10.03;;;6.30;56.10;;;;;;943788;151;27376;-81
2022/03/26 06:01:45;;;;;;;13.43;8.73;;;6.70;56.00;;;;;;942548;151;27799;-80
2022/03/26 06:04:12;;;;;;;14.17;10.43;;;7.10;55.80;;;;;;943442;151;27326;-78
2022/03/26 06:06:39;;;;;;;16.10;10.17;;;7.50;55.60;;;;;;944206;151;27336;-78
2022/03/26 06:09:05;;;;;;;15.57;10.77;;;8.00;55.40;;;;;;944242;149;27326;-77
2022/03/26 06:11:32;;;;;;;14.80;10.53;;;8.40;55.10;;;;;;943498;149;27437;-77
2022/03/26 06:13:58;;;;;;;14.27;11.07;;;8.90;55.00;;;;;;943878;151;27418;-78
2022/03/26 06:16:25;;;;;;;15.43;11.10;;;9.40;54.70;;;;;;943882;151;27268;-79
2022/03/26 06:18:52;;;;;;;15.87;11.73;;;9.80;54.30;;;;;;944397;149;27351;-78
2022/03/26 06:21:18;;;;;;;15.23;11.33;;;10.40;54.10;;;;;;943846;149;27337;-77
2022/03/26 06:23:45;;;;;;;14.00;11.37;;;10.90;53.70;;;;;;944547;149;27356;-78
2022/03/26 06:26:11;;;;;;;14.70;11.10;;;11.40;53.30;;;;;;943431;149;27846;-78
2022/03/26 06:28:38;;;;;;;13.13;10.73;;;12.00;52.90;;;;;;944057;151;27343;-78
2022/03/26 06:31:05;;;;;;;16.80;10.93;;;12.50;52.40;;;;;;944510;149;27332;-78
2022/03/26 06:33:31;;;;;;;15.10;11.03;;;13.00;51.90;;;;;;944037;149;27312;-78
2022/03/26 06:35:58;;;;;;;15.83;12.40;;;13.70;51.50;;;;;;943897;149;27384;-79
2022/03/26 06:38:28;;;;;;;15.20;11.43;;;14.20;51.00;;;;;;944212;149;27929;-78
2022/03/26 06:40:51;;;;;;;18.17;11.37;;;14.80;50.40;;;;;;943681;149;27309;-78
2022/03/26 06:43:17;;;;;;;12.33;10.30;;;15.40;50.00;;;;;;943616;151;27394;-78
2022/03/26 06:45:44;;;;;;;14.43;10.33;;;16.00;49.40;;;;;;943656;151;27339;-78
2022/03/26 06:48:11;;;;;;;13.88;10.68;;;16.60;48.90;;;;;;943860;151;27360;-78
2022/03/26 06:50:37;;;;;;;11.73;9.78;;;17.20;48.30;;;;;;943877;151;27442;-78
2022/03/26 06:53:04;;;;;;;12.95;10.18;;;17.70;47.60;;;;;;943520;151;27368;-78
2022/03/26 06:55:30;;;;;;;12.00;10.80;;;18.20;46.90;;;;;;943957;151;27350;-78
2022/03/26 06:57:57;;;;;;;12.68;9.93;;;18.70;46.30;;;;;;944276;151;27333;-78
2022/03/26 07:00:24;;;;;;;13.35;10.50;;;19.20;45.70;;;;;;943923;151;27445;-79
2022/03/26 07:02:50;;;;;;;14.05;11.22;;;19.70;45.20;;;;;;944182;151;27313;-79
2022/03/26 07:05:17;;;;;;;14.18;10.75;;;20.20;44.60;;;;;;943978;150;27390;-79
2022/03/26 07:07:43;;;;;;;15.40;10.85;;;20.60;44.10;;;;;;943930;151;27285;-79
2022/03/26 07:10:10;;;;;;;14.05;10.72;;;21.00;43.60;;;;;;943677;151;27268;-79
2022/03/26 07:12:37;;;;;;;13.15;10.68;;;21.50;43.20;;;;;;944261;150;27445;-79
2022/03/26 07:15:05;;;;;;;12.82;10.85;;;22.00;42.60;;;;;;943853;151;27361;-79
2022/03/26 07:17:30;;;;;;;12.03;10.72;;;22.30;41.80;;;;;;943127;151;27706;-79
2022/03/26 07:19:56;;;;;;;13.00;10.72;;;22.70;41.20;;;;;;943131;151;28091;-79
2022/03/26 07:22:23;;;;;;;13.55;10.90;;;23.00;40.80;;;;;;943762;151;27302;-79
2022/03/26 07:24:50;;;;;;;12.95;11.57;;;23.30;40.30;;;;;;943714;151;27807;-79
2022/03/26 07:27:16;;;;;;;14.47;11.50;;;23.50;39.70;;;;;;943730;149;27352;-79
2022/03/26 07:29:43;;;;;;;13.28;10.28;;;23.80;39.40;;;;;;943234;151;27485;-79
2022/03/26 07:32:12;;;;;;;13.00;11.30;;;24.10;39.00;;;;;;943012;149;27298;-79
2022/03/26 07:34:38;;;;;;;13.75;10.82;;;24.30;38.70;;;;;;943680;151;27813;-79
2022/03/26 07:37:05;;;;;;;12.40;11.18;;;24.60;38.50;;;;;;943881;151;27428;-80
2022/03/26 07:39:32;;;;;;;16.35;11.10;;;24.80;38.30;;;;;;943677;151;27365;-79
2022/03/26 07:41:58;;;;;;;12.40;11.10;;;25.20;38.10;;;;;;942790;151;27413;-80
2022/03/26 07:44:25;;;;;;;12.70;11.00;;;25.50;37.70;;;;;;936370;152;27403;-79
2022/03/26 07:46:51;;;;;;;13.45;11.25;;;25.90;37.50;;;;;;937467;150;27328;-79
2022/03/26 07:49:18;;;;;;;13.03;11.70;;;26.20;37.20;;;;;;937230;151;27411;-80
2022/03/26 07:51:44;;;;;;;12.45;11.12;;;26.60;37.20;;;;;;935779;151;27345;-80
2022/03/26 07:54:11;;;;;;;11.60;10.50;;;27.00;36.70;;;;;;936045;151;27302;-79
2022/03/26 07:56:38;;;;;;;12.15;10.90;;;27.40;36.60;;;;;;937348;152;27377;-80
2022/03/26 07:59:04;;;;;;;12.85;10.60;;;27.90;36.20;;;;;;936162;152;27698;-79
2022/03/26 08:01:31;;;;;;;15.90;11.55;;;28.30;35.90;;;;;;936947;152;27364;-80
2022/03/26 08:03:57;;;;;;;12.85;10.85;;;28.70;35.20;;;;;;936381;152;27406;-80
2022/03/26 08:06:24;;;;;;;13.13;10.80;;;29.10;34.80;;;;;;935176;151;27299;-80
2022/03/26 08:08:51;;;;;;;12.05;10.78;;;29.40;34.10;;;;;;936082;152;27306;-80
2022/03/26 08:11:17;;;;;;;12.82;11.53;;;29.70;33.80;;;;;;936503;152;27668;-80
2022/03/26 08:13:44;;;;;;;15.00;11.85;;;30.00;33.40;;;;;;936538;152;27325;-79
2022/03/26 08:16:10;;;;;;;14.80;11.25;;;30.20;33.20;;;;;;936466;152;27407;-80
2022/03/26 08:18:37;;;;;;;14.87;12.03;;;30.40;32.80;;;;;;936423;152;27323;-80
2022/03/26 08:21:04;;;;;;;13.03;11.60;;;30.60;32.20;;;;;;935394;152;27682;-80
2022/03/26 08:23:30;;;;;;;14.07;12.25;;;30.80;31.80;;;;;;935249;152;27436;-80
2022/03/26 08:28:42;;;;;;;14.30;12.80;;;30.90;30.70;;;;;;936448;152;27641;-80
2022/03/26 08:31:10;;;;;;;13.88;12.47;;;30.90;30.70;;;;;;935751;150;27303;-80
2022/03/26 08:33:35;;;;;;;14.63;11.80;;;30.90;30.20;;;;;;935349;151;27350;-80
2022/03/26 08:36:02;;;;;;;12.78;11.50;;;30.80;30.40;;;;;;935896;150;27346;-80
2022/03/26 08:38:28;;;;;;;14.15;11.03;;;30.90;30.50;;;;;;935438;151;27369;-80
2022/03/26 08:40:55;;;;;;;17.40;12.70;;;31.00;30.50;;;;;;936270;151;27365;-80
2022/03/26 08:43:21;;;;;;;15.58;11.95;;;31.20;30.30;;;;;;934205;151;27423;-80
2022/03/26 08:45:48;;;;;;;14.13;12.07;;;31.30;30.40;;;;;;934661;152;27350;-80
2022/03/26 08:48:17;;;;;;;13.32;11.55;;;31.50;30.40;;;;;;936637;152;27283;-80
2022/03/26 08:50:41;;;;;;;13.43;12.03;;;31.70;30.20;;;;;;934913;150;27723;-80
2022/03/26 08:53:08;;;;;;;13.15;11.78;;;31.90;29.90;;;;;;934839;150;27361;-81
2022/03/26 08:55:34;;;;;;;15.68;11.20;;;32.20;29.90;;;;;;936408;150;27328;-80
2022/03/26 08:58:01;;;;;;;14.20;11.70;;;32.40;29.70;;;;;;936166;150;27303;-81
2022/03/26 09:00:27;;;;;;;12.60;11.28;;;32.60;29.30;;;;;;935520;150;27453;-80
2022/03/26 09:02:54;;;;;;;13.98;11.83;;;32.70;29.30;;;;;;936463;150;27298;-81
2022/03/26 09:05:21;;;;;;;14.23;11.53;;;32.90;29.10;;;;;;936092;150;27322;-81
2022/03/26 09:07:47;;;;;;;13.38;12.05;;;33.00;29.00;;;;;;935108;151;27358;-81
2022/03/26 09:10:14;;;;;;;15.40;12.25;;;33.20;28.90;;;;;;934696;150;27400;-81
2022/03/26 09:12:40;;;;;;;13.90;12.10;;;33.20;28.60;;;;;;935470;152;27262;-81
2022/03/26 09:15:07;;;;;;;14.50;12.95;;;33.30;28.20;;;;;;935413;151;27322;-80
2022/03/26 09:17:34;;;;;;;14.10;12.70;;;33.30;28.10;;;;;;935185;152;27456;-80
2022/03/26 09:20:00;;;;;;;14.25;12.23;;;33.30;28.00;;;;;;935528;152;27315;-80
2022/03/26 09:22:27;;;;;;;14.10;12.70;;;33.20;27.90;;;;;;934403;151;27468;-80
2022/03/26 09:24:53;;;;;;;13.03;11.78;;;33.20;27.90;;;;;;935359;152;27346;-80
2022/03/26 09:27:20;;;;;;;15.32;11.88;;;33.20;28.00;;;;;;937472;152;27404;-81
2022/03/26 09:29:47;;;;;;;14.45;11.90;;;33.20;28.00;;;;;;937343;150;27460;-80
2022/03/26 09:32:13;;;;;;;16.57;12.37;;;33.30;28.00;;;;;;938021;151;27354;-80
2022/03/26 09:34:40;;;;;;;14.15;12.53;;;33.30;27.90;;;;;;935972;151;27339;-81
2022/03/26 09:37:06;;;;;;;15.65;13.18;;;33.40;27.90;;;;;;936528;152;27405;-81
2022/03/26 09:39:33;;;;;;;14.43;11.88;;;33.50;27.80;;;;;;935285;152;27303;-81
2022/03/26 09:42:00;;;;;;;15.80;12.73;;;33.50;27.70;;;;;;935928;152;27419;-81
2022/03/26 09:44:26;;;;;;;15.08;12.18;;;33.50;27.60;;;;;;941007;151;27353;-81
2022/03/26 09:46:53;;;;;;;14.78;12.65;;;33.60;27.50;;;;;;944337;149;27338;-81
2022/03/26 09:49:20;;;;;;;13.53;11.75;;;33.60;27.40;;;;;;943383;149;27263;-81
2022/03/26 09:51:46;;;;;;;14.65;12.00;;;33.60;27.30;;;;;;943572;151;27431;-81
2022/03/26 09:54:13;;;;;;;14.68;13.20;;;33.50;27.20;;;;;;943064;151;27407;-81
2022/03/26 09:56:39;;;;;;;14.40;12.82;;;33.50;27.10;;;;;;944264;151;28344;-81
2022/03/26 09:59:06;;;;;;;14.98;12.90;;;33.40;27.10;;;;;;943903;151;27458;-81
2022/03/26 10:01:32;;;;;;;15.35;13.32;;;33.20;27.00;;;;;;943568;149;27403;-81
2022/03/26 10:04:17;;;;;;;15.18;13.58;;;33.00;26.50;;;;;;944235;149;27314;-81
2022/03/26 10:06:55;;;;;;;16.57;13.22;;;32.70;26.50;;;;;;943656;151;27325;-81
2022/03/26 10:09:25;;;;;;;14.68;12.03;;;32.30;26.30;;;;;;943797;151;27270;-81
2022/03/26 10:11:54;;;;;;;14.40;12.68;;;31.90;26.30;;;;;;938849;151;27371;-81
2022/03/26 10:14:21;;;;;;;15.70;13.28;;;31.50;26.40;;;;;;940896;151;27373;-81
2022/03/26 10:16:50;;;;;;;15.20;13.10;;;31.10;26.60;;;;;;942884;151;27451;-81
2022/03/26 10:19:16;;;;;;;20.75;15.30;;;30.70;26.60;;;;;;943392;149;27291;-81
2022/03/26 10:21:43;;;;;;;15.98;13.32;;;30.50;26.80;;;;;;940726;151;27414;-81
2022/03/26 10:24:10;;;;;;;14.70;12.95;;;30.20;26.80;;;;;;943549;149;27269;-81
2022/03/26 10:26:36;;;;;;;15.08;12.65;;;29.90;26.70;;;;;;944192;151;27458;-81
2022/03/26 10:29:03;;;;;;;15.85;12.40;;;29.70;26.90;;;;;;944284;149;27321;-81
2022/03/26 10:34:19;;;;;;;15.83;13.35;;;29.10;26.90;;;;;;943777;150;27402;-81
2022/03/26 10:36:55;;;;;;;16.40;13.85;;;28.80;27.00;;;;;;943474;151;27437;-80
2022/03/26 10:39:22;;;;;;;16.30;13.22;;;28.40;27.00;;;;;;943199;151;27350;-81
2022/03/26 10:41:49;;;;;;;15.75;13.83;;;28.10;27.10;;;;;;942358;151;27361;-81
2022/03/26 10:44:15;;;;;;;16.52;12.33;;;27.80;27.30;;;;;;941327;151;27439;-81
2022/03/26 10:46:53;;;;;;;15.55;12.13;;;27.50;27.40;;;;;;936630;152;27815;-81
2022/03/26 10:49:38;;;;;;;14.75;12.00;;;27.30;27.60;;;;;;937466;152;27315;-81
2022/03/26 10:52:04;;;;;;;15.88;12.47;;;27.10;27.70;;;;;;936833;152;27451;-81
2022/03/26 10:54:31;;;;;;;14.18;12.10;;;26.80;27.70;;;;;;936099;152;27330;-81
2022/03/26 10:57:00;;;;;;;13.40;10.93;;;26.60;27.80;;;;;;935353;151;27257;-81
2022/03/26 10:59:27;;;;;;;12.75;11.38;;;26.40;27.70;;;;;;935786;152;27323;-81
2022/03/26 11:01:53;;;;;;;14.45;11.25;;;26.20;27.80;;;;;;936235;150;27347;-81
2022/03/26 11:04:21;;;;;;;17.75;10.45;;;26.00;27.80;;;;;;936184;150;27310;-80
2022/03/26 11:06:47;;;;;;;11.73;9.38;;;25.80;27.60;;;;;;936228;152;27355;-81
2022/03/26 11:09:13;;;;;;;10.80;8.05;;;25.60;27.70;;;;;;936468;152;27255;-81
2022/03/26 11:11:40;;;;;;;11.28;10.05;;;25.40;27.90;;;;;;936338;151;27438;-81
2022/03/26 11:14:12;;;;;;;10.43;8.98;;;25.20;27.90;;;;;;935524;152;27389;-81
2022/03/26 11:16:41;;;;;;;11.78;8.23;;;24.90;27.90;;;;;;935306;152;27293;-81
2022/03/26 11:19:27;;;;;;;9.60;8.48;;;24.70;28.20;;;;;;937222;152;27306;-80
2022/03/26 11:21:56;;;;;;;12.07;8.85;;;24.60;28.30;;;;;;934014;152;27310;-80
2022/03/26 11:24:47;;;;;;;11.68;8.43;;;24.40;28.30;;;;;;936777;152;27321;-80
2022/03/26 11:27:32;;;;;;;11.75;8.63;;;24.20;28.40;;;;;;936891;150;27499;-81
2022/03/26 11:30:24;;;;;;;10.18;8.55;;;23.90;28.50;;;;;;936052;151;27364;-80
2022/03/26 11:32:52;;;;;;;15.63;9.48;;;23.70;28.50;;;;;;931795;152;27446;-80
2022/03/26 11:35:16;;;;;;;12.95;8.63;;;23.50;28.60;;;;;;935042;152;27271;-80
2022/03/26 11:37:54;;;;;;;14.87;8.90;;;23.30;28.70;;;;;;935838;152;27335;-80
2022/03/26 11:40:40;;;;;;;12.43;7.80;;;23.10;28.90;;;;;;935136;151;27305;-80
2022/03/26 11:43:06;;;;;;;10.38;8.05;;;22.90;29.10;;;;;;935518;152;27359;-81
2022/03/26 11:51:17;;;;;;;10.72;8.50;;;22.40;29.60;;;;;;936322;152;27397;-80
2022/03/26 11:53:44;;;;;;;10.78;7.83;;;22.30;29.90;;;;;;936115;151;27267;-80
2022/03/26 11:56:08;;;;;;;13.98;8.48;;;22.30;30.20;;;;;;936024;152;27335;-80
2022/03/26 11:58:34;;;;;;;15.35;7.92;;;22.10;29.80;;;;;;935955;152;27368;-80
2022/03/26 12:01:04;;;;;;;10.63;7.28;;;22.10;29.80;;;;;;935560;152;27451;-80
2022/03/26 12:03:30;;;;;;;12.10;7.97;;;22.00;29.30;;;;;;935802;151;27817;-80
2022/03/26 12:08:54;;;;;;;9.25;7.42;;;21.80;30.00;;;;;;937301;152;27317;-80
2022/03/26 12:11:26;;;;;;;10.23;8.65;;;21.80;30.00;;;;;;936412;151;27865;-80
2022/03/26 12:14:01;;;;;;;9.40;6.85;;;21.70;30.30;;;;;;934763;152;27715;-80
2022/03/26 12:16:49;;;;;;;10.85;8.25;;;21.70;30.30;;;;;;935229;152;27298;-80
2022/03/26 12:19:47;;;;;;;11.50;8.33;;;21.70;30.50;;;;;;936623;150;27321;-80
2022/03/26 12:22:29;;;;;;;7.85;6.90;;;21.70;30.60;;;;;;937040;151;27422;-80
2022/03/26 12:24:55;;;;;;;11.18;8.75;;;21.60;30.60;;;;;;935101;152;27800;-80
2022/03/26 12:27:22;;;;;;;11.15;7.33;;;21.60;31.00;;;;;;935981;152;27265;-80
2022/03/26 12:29:49;;;;;;;11.60;8.28;;;21.60;30.80;;;;;;936654;152;27347;-80
2022/03/26 12:32:15;;;;;;;14.20;8.78;;;21.60;30.90;;;;;;936104;152;27439;-80
2022/03/26 12:34:51;;;;;;;11.20;8.13;;;21.60;31.70;;;;;;936001;151;27373;-80
2022/03/26 12:37:17;;;;;;;10.28;7.37;;;21.60;31.10;;;;;;934833;152;27413;-80
2022/03/26 12:39:44;;;;;;;10.32;7.60;;;21.60;31.20;;;;;;937099;150;27396;-80
2022/03/26 12:42:11;;;;;;;9.88;8.15;;;21.60;31.20;;;;;;936625;152;27431;-80
2022/03/26 12:44:37;;;;;;;9.08;7.33;;;21.60;31.20;;;;;;936355;149;27762;-81
2022/03/26 12:47:04;;;;;;;8.63;6.95;;;21.60;30.90;;;;;;936101;151;28642;-80
2022/03/26 12:49:30;;;;;;;11.38;8.00;;;21.60;31.00;;;;;;936628;152;27340;-80
2022/03/26 12:51:57;;;;;;;8.85;7.08;;;21.50;30.90;;;;;;935220;150;27964;-80
2022/03/26 12:54:24;;;;;;;11.95;7.12;;;21.50;30.80;;;;;;934900;152;27316;-80